• Join FlightAware (Why Join?)
  • Login
  • US Flag 
10:55PM EDT


 

Airport Tracker/Info


-or-


 

Live Flight TrackerFlight Track Log ✈ N588AC ✈ 11-May-2013 ✈ KBCB - 19A

Flight Track Log - Related Links

Times and Time Zones

All times are in EDT time to prevent confusion due to time zone crossing. See the N588AC flight status page for this flight to view local times or setup timezone preferences in your user account.

Time Position Orientation Groundspeed Altitude Reporting Facility
EDT Latitude Longitude Course Direction KTS MPH feet Rate Location/Type
08:21AM 37.1800 -80.4981 215° Southwest 210 242 6,000  Level Washington Center
08:21AM 37.1392 -80.5631 232° Southwest 252 290 5,900 480 Descending Atlanta Center
08:22AM 37.1122 -80.6422 247° West 259 298 7,000 1,860 Climbing Atlanta Center
08:23AM 37.0869 -80.7058 244° Southwest 246 283 9,700 2,460 Climbing Atlanta Center
08:24AM 37.0344 -80.7681 223° Southwest 246 283 12,000 2,160 Climbing Atlanta Center
08:25AM 36.9839 -80.8322 225° Southwest 256 295 14,100 2,280 Climbing Atlanta Center
08:26AM 36.9829 -80.7963 215° Southwest  Level FlightAware Approximate
08:26AM 36.9292 -80.8892 220° Southwest 262 302 16,600  Level Atlanta Center
08:27AM 36.8683 -80.9539 220° Southwest 268 308 19,000 2,160 Climbing Atlanta Center
08:28AM 36.8136 -81.0156 222° Southwest 268 308 21,000 1,680 Climbing Atlanta Center
08:29AM 36.7708 -81.0639 222° Southwest 268 308 22,400 1,560 Climbing Atlanta Center
08:30AM 36.7100 -81.1361 224° Southwest 263 303 24,200 1,500 Climbing Atlanta Center
08:31AM 36.6531 -81.1975 221° Southwest 268 308 25,400 1,500 Climbing Atlanta Center
08:32AM 36.5981 -81.2564 221° Southwest 268 308 27,300 1,620 Climbing Atlanta Center
08:33AM 36.5475 -81.3203 225° Southwest 263 303 28,700 1,380 Climbing Atlanta Center
08:34AM 36.4903 -81.3764 218° Southwest 268 308 30,100 1,500 Climbing Atlanta Center
08:35AM 36.4353 -81.4400 223° Southwest 273 314 31,700 900 Climbing Atlanta Center
08:36AM 36.3783 -81.5064 223° Southwest 278 320 32,000 300 Climbing Atlanta Center
08:37AM 36.3111 -81.5808 222° Southwest 309 356 32,400 840 Climbing Atlanta Center
08:38AM 36.2539 -81.6442 222° Southwest 318 366 33,700 1,200 Climbing Atlanta Center
08:39AM 36.1925 -81.7078 220° Southwest 308 354 34,900 1,080 Climbing Atlanta Center
08:40AM 36.1314 -81.7764 222° Southwest 298 343 35,900 540 Climbing Atlanta Center
08:41AM 36.0678 -81.8425 220° Southwest 299 344 36,000  Climbing Atlanta Center
08:42AM 35.9981 -81.9083 217° Southwest 319 367 36,000  Level Atlanta Center
08:43AM 35.9261 -81.9744 217° Southwest 324 373 36,000  Level Atlanta Center
08:44AM 35.8544 -82.0431 218° Southwest 330 380 36,000  Level Atlanta Center
08:45AM 35.7825 -82.1139 219° Southwest 330 380 36,000  Level Atlanta Center
08:46AM 35.7064 -82.1822 216° Southwest 340 391 36,000  Level Atlanta Center
08:47AM 35.6261 -82.2528 216° Southwest 333 383 36,000 -480 Level Atlanta Center
08:48AM 35.5519 -82.3208 217° Southwest 338 389 35,100 -1,080 Descending Atlanta Center
08:49AM 35.4778 -82.3914 218° Southwest 338 389 33,900 -1,380 Descending Atlanta Center
08:50AM 35.4056 -82.4617 218° Southwest 338 389 32,400 -1,500 Descending Atlanta Center
08:51AM 35.3333 -82.5267 216° Southwest 333 383 30,900 -1,500 Descending Atlanta Center
08:52AM 35.2506 -82.5686 202° Southwest 327 376 29,400 -960 Descending Atlanta Center
08:53AM 35.1569 -82.5933 192° South 335 386 29,000 3,300 Descending Atlanta Center
08:54AM 35.0611 -82.6203 193° South 348 400 36,000 -1,200 Climbing Atlanta Center
08:55AM 34.9678 -82.6522 196° South 348 400 26,600 -6,000 Descending Atlanta Center
08:56AM 34.9206 -82.7469 239° Southwest 336 387 24,100 -2,460 Descending Atlanta Center
08:57AM 34.8589 -82.8364 230° Southwest 332 382 21,700 -2,460 Descending Atlanta Center
08:58AM 34.7928 -82.9056 221° Southwest 327 376 19,200 -2,460 Descending Atlanta Center
08:59AM 34.7456 -82.9719 229° Southwest 306 352 16,800 -2,520 Descending Atlanta Center
09:00AM 34.7003 -83.0483 234° Southwest 285 328 14,200 -2,400 Descending Atlanta Center
09:01AM 34.6611 -83.1297 240° Southwest 280 322 12,100 -2,100 Descending Atlanta Center
09:02AM 34.6178 -83.2033 234° Southwest 272 313 10,100 -1,980 Descending Atlanta Center
09:03AM 34.5828 -83.2692 237° Southwest 264 304 8,200 -1,560 Descending Atlanta Center
09:04AM 34.5417 -83.3428 236° Southwest 264 304 7,000 -600 Descending Atlanta Center
09:05AM 34.5003 -83.4086 233° Southwest 259 298 7,000 -60 Level Atlanta Center
09:06AM 34.4400 -83.4594 215° Southwest 248 285 6,900 -360 Descending Atlanta Center
09:07AM 34.3756 -83.5128 214° Southwest 256 295 6,300 -960 Descending Atlanta Center
09:08AM 34.3214 -83.5583 215° Southwest 247 284 5,000 -1,680 Descending Atlanta Center
09:09AM 34.2692 -83.5864 204° Southwest 220 253 3,000 -1,440 Descending Atlanta Center
09:10AM 34.2172 -83.6042 196° South 202 232 2,200 16,500 Descending Atlanta Center
09:11AM 34.1650 -83.6244 198° South 202 232 36,000 16,860 Climbing Atlanta Center
09:12AM 34.1131 -83.6425 196° South 202 232 36,000  Level Atlanta Center
09:14AM 34.1668 -83.5737 202° Southwest  Level Estimated
09:21AM 34.1667 -83.5500 202° Southwest  Level FlightAware Approximate
09:22AM 34.1761 -83.5617 202° Southwest  Level Estimated